Time;durP1;ratioP1;P1;durP2;ratioP2;P2;SDS_P1;SDS_P2;PMS_P1;PMS_P2;Temp;Humidity;BMP_temperature;BMP_pressure;BME280_temperature;BME280_humidity;BME280_pressure;Samples;Min_cycle;Max_cycle;Signal;HPM_P1;HPM_P2
2023/07/08 00:00:53;;;;;;;8.93;4.57;;;;;;;17.58;54.94;97332.56;5046666;28;20040;-49
2023/07/08 00:03:20;;;;;;;10.18;5.15;;;;;;;17.51;55.96;97325.53;5039257;28;20048;-49
2023/07/08 00:05:49;;;;;;;9.27;5.28;;;;;;;17.40;56.31;97329.56;5030697;28;20033;-49
2023/07/08 00:08:18;;;;;;;10.38;5.30;;;;;;;17.35;56.71;97322.25;5044390;28;20040;-49
2023/07/08 00:10:46;;;;;;;9.20;4.63;;;;;;;17.47;56.36;97320.97;5039240;28;20436;-49
2023/07/08 00:13:13;;;;;;;9.80;5.35;;;;;;;17.38;56.35;97316.19;5056556;28;20048;-49
2023/07/08 00:15:40;;;;;;;10.18;4.57;;;;;;;17.24;57.38;97310.63;5047273;28;20075;-50
2023/07/08 00:18:16;;;;;;;9.18;4.95;;;;;;;17.27;56.95;97312.78;5049263;28;20454;-51
2023/07/08 00:20:50;;;;;;;12.13;6.15;;;;;;;17.22;57.90;97317.53;5054202;28;20079;-47
2023/07/08 00:23:21;;;;;;;9.68;5.38;;;;;;;17.32;56.87;97313.81;5053722;28;20067;-48
2023/07/08 00:25:48;;;;;;;;;;;;;;;17.45;56.78;97313.06;5049634;28;20080;-49
2023/07/08 00:28:17;;;;;;;10.63;4.50;;;;;;;17.59;56.85;97310.38;5057582;28;20114;-49
2023/07/08 00:30:44;;;;;;;8.25;4.95;;;;;;;17.31;58.25;97306.72;5051430;28;20575;-50
2023/07/08 00:33:10;;;;;;;10.95;5.60;;;;;;;17.19;58.63;97305.25;5041133;28;20041;-47
2023/07/08 00:35:43;;;;;;;8.02;4.95;;;;;;;17.07;59.11;97305.72;5041392;28;20048;-47
2023/07/08 00:38:17;;;;;;;8.98;4.80;;;;;;;16.91;59.49;97307.81;5061166;28;20040;-46
2023/07/08 00:40:59;;;;;;;10.70;4.80;;;;;;;16.85;59.46;97309.78;5052479;28;20041;-49
2023/07/08 00:43:36;;;;;;;11.70;4.70;;;;;;;16.76;59.97;97323.31;5055921;28;20044;-48
2023/07/08 00:46:23;;;;;;;12.52;5.07;;;;;;;16.76;60.23;97325.22;5050862;28;20047;-49
2023/07/08 00:48:52;;;;;;;9.68;5.03;;;;;;;16.95;58.98;97321.72;5048997;28;20037;-48
2023/07/08 00:51:20;;;;;;;9.77;4.57;;;;;;;17.02;58.33;97316.69;5042205;28;20086;-50
2023/07/08 00:53:46;;;;;;;8.50;4.47;;;;;;;17.20;57.81;97330.66;5055041;28;20577;-52
2023/07/08 00:56:20;;;;;;;10.30;4.68;;;;;;;17.25;57.54;97331.41;5046471;28;20037;-49
2023/07/08 00:58:58;;;;;;;10.40;4.60;;;;;;;17.26;58.22;97324.84;5057792;28;20047;-50
2023/07/08 01:01:27;;;;;;;9.27;5.20;;;;;;;16.95;60.01;97322.50;5049134;28;20091;-48
2023/07/08 01:04:05;;;;;;;11.23;5.00;;;;;;;16.92;59.61;97328.59;5044971;28;20656;-47
2023/07/08 01:06:39;;;;;;;12.23;5.10;;;;;;;16.72;61.33;97319.53;5052641;28;20044;-50
2023/07/08 01:09:10;;;;;;;9.35;4.95;;;;;;;16.63;61.88;97322.09;5049565;28;20116;-51
2023/07/08 01:11:38;;;;;;;8.70;4.85;;;;;;;16.43;62.79;97314.97;5047244;28;20052;-50
2023/07/08 01:14:08;;;;;;;13.20;6.13;;;;;;;16.29;62.74;97309.41;5048951;28;20040;-50
2023/07/08 01:16:36;;;;;;;9.05;4.60;;;;;;;16.25;62.98;97302.88;5043588;28;20044;-49
2023/07/08 01:19:06;;;;;;;8.75;4.72;;;;;;;16.22;63.50;97307.03;5045575;28;20109;-47
2023/07/08 01:21:38;;;;;;;9.23;5.30;;;;;;;16.22;63.04;97308.97;5055802;28;20543;-50
2023/07/08 01:24:11;;;;;;;10.20;5.13;;;;;;;15.99;63.82;97311.38;5049309;28;20033;-49
2023/07/08 01:26:41;;;;;;;9.98;5.03;;;;;;;15.89;64.73;97311.44;5047651;28;20080;-48
2023/07/08 01:29:08;;;;;;;10.10;5.33;;;;;;;15.78;65.33;97311.56;5045331;28;20045;-49
2023/07/08 01:31:35;;;;;;;7.78;4.18;;;;;;;15.62;66.18;97313.59;5044741;28;20053;-51
2023/07/08 01:34:01;;;;;;;10.73;6.03;;;;;;;15.69;65.39;97314.09;5046914;28;20071;-49
2023/07/08 01:36:34;;;;;;;10.85;5.45;;;;;;;15.77;64.81;97307.19;5047181;28;20037;-47
2023/07/08 01:39:00;;;;;;;9.02;4.80;;;;;;;15.71;65.50;97306.41;5041561;28;20639;-49
2023/07/08 01:41:27;;;;;;;11.63;5.30;;;;;;;15.83;64.46;97308.78;5044032;28;20040;-48
2023/07/08 01:43:54;;;;;;;9.45;5.07;;;;;;;15.90;65.12;97307.59;5044092;28;20181;-48
2023/07/08 01:46:24;;;;;;;8.93;4.57;;;;;;;15.97;64.17;97302.66;5049858;28;20040;-50
2023/07/08 01:48:57;;;;;;;9.63;5.28;;;;;;;15.99;64.55;97309.47;5044734;28;20098;-52
2023/07/08 01:51:26;;;;;;;8.45;4.45;;;;;;;15.96;64.85;97310.03;5039444;28;20132;-48
2023/07/08 01:53:53;;;;;;;9.63;5.20;;;;;;;15.80;66.20;97313.97;5037884;28;20041;-49
2023/07/08 01:56:19;;;;;;;12.30;5.38;;;;;;;15.36;67.48;97308.34;5035951;28;20049;-51
2023/07/08 01:58:46;;;;;;;9.65;4.78;;;;;;;15.25;66.94;97307.63;5045068;28;20045;-49
2023/07/08 02:01:13;;;;;;;9.88;4.82;;;;;;;15.29;67.35;97307.88;5051191;28;20049;-49
2023/07/08 02:03:39;;;;;;;9.70;4.97;;;;;;;15.14;67.54;97309.59;5046704;28;20049;-51
2023/07/08 02:06:10;;;;;;;10.02;5.35;;;;;;;15.02;68.80;97300.97;5047451;28;20040;-50
2023/07/08 02:08:36;;;;;;;10.65;4.82;;;;;;;15.02;69.61;97306.41;5047452;28;20057;-51
2023/07/08 02:11:03;;;;;;;8.70;5.03;;;;;;;15.11;68.65;97303.91;5042519;28;20082;-49
2023/07/08 02:13:29;;;;;;;10.15;4.72;;;;;;;15.15;67.84;97303.03;5053169;28;20535;-52
2023/07/08 02:15:56;;;;;;;12.35;4.80;;;;;;;15.41;67.38;97302.06;5049871;28;20041;-51
2023/07/08 02:18:24;;;;;;;8.88;4.68;;;;;;;15.20;68.37;97305.75;5037588;28;20550;-51
2023/07/08 02:20:51;;;;;;;9.73;4.90;;;;;;;15.08;68.60;97319.72;5036294;28;20119;-52
2023/07/08 02:23:18;;;;;;;10.05;4.80;;;;;;;14.99;69.70;97310.53;5049882;28;20040;-50
2023/07/08 02:25:52;;;;;;;9.65;5.13;;;;;;;14.95;69.67;97309.47;5035382;28;20091;-47
2023/07/08 02:28:19;;;;;;;14.48;5.15;;;;;;;14.95;69.69;97314.91;5040748;28;20040;-49
2023/07/08 02:30:48;;;;;;;10.18;4.68;;;;;;;15.14;68.98;97315.06;5058822;28;20418;-51
2023/07/08 02:33:17;;;;;;;9.25;4.85;;;;;;;15.29;68.78;97318.78;5053343;28;20044;-50
2023/07/08 02:35:45;;;;;;;11.45;5.20;;;;;;;15.57;67.12;97321.84;5033802;28;20041;-51
2023/07/08 02:38:11;;;;;;;10.45;4.63;;;;;;;15.62;67.67;97321.78;5049624;28;20040;-50
2023/07/08 02:40:39;;;;;;;9.65;4.68;;;;;;;15.63;68.61;97319.88;5052618;28;20036;-53
2023/07/08 02:43:06;;;;;;;9.00;4.70;;;;;;;15.65;67.95;97331.31;5043357;28;20047;-47
2023/07/08 02:45:32;;;;;;;9.73;5.18;;;;;;;15.74;67.07;97324.16;5051401;28;20032;-48
2023/07/08 02:47:59;;;;;;;8.52;4.70;;;;;;;15.84;65.49;97332.25;5046533;28;20037;-50
2023/07/08 02:50:26;;;;;;;10.00;4.97;;;;;;;16.06;64.53;97321.94;5048715;28;20067;-49
2023/07/08 02:52:52;;;;;;;8.13;4.50;;;;;;;16.15;64.83;97322.97;5054509;28;20045;-51
2023/07/08 02:55:19;;;;;;;8.15;4.93;;;;;;;16.15;65.03;97322.13;5041234;28;20043;-49
2023/07/08 02:57:45;;;;;;;9.82;5.25;;;;;;;16.31;63.60;97326.34;5048066;28;20041;-50
2023/07/08 03:00:13;;;;;;;8.02;4.70;;;;;;;16.43;63.43;97325.13;5051990;28;20049;-48
2023/07/08 03:02:39;;;;;;;10.02;4.50;;;;;;;16.38;63.41;97323.25;5051033;28;20040;-52
2023/07/08 03:05:06;;;;;;;8.88;5.25;;;;;;;16.41;62.94;97327.31;5039320;28;20527;-48
2023/07/08 03:07:33;;;;;;;10.32;4.82;;;;;;;16.59;61.42;97329.25;5046232;28;20152;-51
2023/07/08 03:10:00;;;;;;;10.23;5.13;;;;;;;16.77;60.44;97335.88;5058642;28;20645;-50
2023/07/08 03:12:26;;;;;;;12.25;4.53;;;;;;;16.86;60.10;97335.22;5060945;28;20475;-50
2023/07/08 03:14:52;;;;;;;8.63;4.40;;;;;;;16.92;59.55;97328.59;5046273;28;20031;-49
2023/07/08 03:17:19;;;;;;;10.60;5.25;;;;;;;16.89;59.59;97338.19;5052531;28;20037;-51
2023/07/08 03:19:46;;;;;;;9.68;5.53;;;;;;;16.92;59.34;97346.91;5051771;28;20045;-47
2023/07/08 03:22:13;;;;;;;8.35;4.50;;;;;;;17.01;58.33;97332.28;5037806;28;20233;-51
2023/07/08 03:24:45;;;;;;;10.85;4.85;;;;;;;17.16;57.35;97334.03;5051639;28;20043;-46
2023/07/08 03:27:16;;;;;;;8.10;4.57;;;;;;;17.14;58.52;97344.44;5063468;28;20455;-48
2023/07/08 03:29:45;;;;;;;9.73;4.95;;;;;;;17.03;58.71;97342.94;5048605;28;20454;-49
2023/07/08 03:32:12;;;;;;;8.73;5.00;;;;;;;17.08;58.81;97326.47;5052169;28;20053;-49
2023/07/08 03:34:40;;;;;;;9.20;4.43;;;;;;;16.85;62.41;97339.88;5052695;28;20045;-48
2023/07/08 03:37:08;;;;;;;9.43;4.57;;;;;;;16.27;65.57;97330.75;5043393;28;20056;-48
2023/07/08 03:39:35;;;;;;;9.35;4.65;;;;;;;16.37;63.44;97329.81;5049784;28;20048;-49
2023/07/08 03:42:03;;;;;;;10.55;4.90;;;;;;;16.37;63.30;97329.81;5045080;28;20044;-50
2023/07/08 03:44:30;;;;;;;8.00;4.18;;;;;;;16.44;63.19;97326.75;5040695;28;20132;-47
2023/07/08 03:46:56;;;;;;;9.48;4.93;;;;;;;16.48;62.72;97325.84;5040194;28;20052;-47
2023/07/08 03:49:24;;;;;;;11.25;4.65;;;;;;;16.07;65.83;97337.25;5047189;28;20120;-47
2023/07/08 03:51:53;;;;;;;10.32;4.80;;;;;;;16.09;65.00;97335.84;5031142;28;20051;-50
2023/07/08 03:54:22;;;;;;;10.90;4.47;;;;;;;16.33;62.86;97331.50;5047435;28;20124;-47
2023/07/08 03:56:50;;;;;;;9.52;4.82;;;;;;;16.56;63.14;97337.25;5045752;28;20037;-50
2023/07/08 03:59:17;;;;;;;7.85;4.72;;;;;;;16.29;64.50;97334.00;5042328;28;20120;-51
2023/07/08 04:01:45;;;;;;;7.68;4.63;;;;;;;16.01;65.11;97347.41;5047543;28;20052;-50
2023/07/08 04:04:14;;;;;;;10.02;5.03;;;;;;;16.25;62.18;97339.22;5043936;28;20052;-49
2023/07/08 04:06:43;;;;;;;10.00;5.07;;;;;;;16.42;62.06;97342.59;5042754;28;20045;-49
2023/07/08 04:09:11;;;;;;;10.48;5.30;;;;;;;16.25;63.12;97344.69;5036948;28;20040;-46
2023/07/08 04:11:38;;;;;;;11.80;5.18;;;;;;;16.29;63.28;97333.19;5035781;28;20053;-51
2023/07/08 04:14:04;;;;;;;9.90;4.72;;;;;;;16.10;64.49;97342.13;5047084;28;20040;-49
2023/07/08 04:16:51;;;;;;;8.60;4.90;;;;;;;16.28;62.99;97342.50;5049183;28;20029;-50
2023/07/08 04:19:17;;;;;;;8.90;4.68;;;;;;;16.40;62.62;97340.16;5044713;28;20041;-47
2023/07/08 04:21:45;;;;;;;9.25;5.10;;;;;;;16.36;64.50;97342.66;5033913;28;20049;-51
2023/07/08 04:24:14;;;;;;;8.77;4.47;;;;;;;16.34;66.56;97341.31;5045821;28;20076;-49
2023/07/08 04:26:41;;;;;;;10.85;5.90;;;;;;;16.35;66.10;97346.50;5041887;28;20127;-51
2023/07/08 04:29:18;;;;;;;9.43;5.03;;;;;;;16.34;66.42;97336.69;5037068;28;20057;-47
2023/07/08 04:31:45;;;;;;;9.85;4.70;;;;;;;16.59;64.15;97336.66;5040199;28;21638;-48
2023/07/08 04:34:12;;;;;;;10.45;5.32;;;;;;;16.86;62.71;97341.50;5036329;28;20044;-49
2023/07/08 04:36:38;;;;;;;9.30;4.60;;;;;;;17.00;62.95;97333.38;5045560;28;20045;-52
2023/07/08 04:39:06;;;;;;;9.75;5.15;;;;;;;16.49;66.67;97332.97;5042313;28;20055;-51
2023/07/08 04:41:34;;;;;;;10.80;5.93;;;;;;;16.52;66.92;97334.28;5038801;28;20044;-50
2023/07/08 04:44:02;;;;;;;11.23;4.82;;;;;;;16.40;67.51;97334.69;5031996;28;20443;-47
2023/07/08 04:46:34;;;;;;;9.65;4.75;;;;;;;16.31;67.47;97347.38;5047305;28;20040;-49
2023/07/08 04:49:02;;;;;;;10.70;5.03;;;;;;;16.41;65.54;97352.72;5044801;28;20504;-50
2023/07/08 04:51:29;;;;;;;9.15;4.68;;;;;;;16.59;65.36;97358.53;5048153;28;20044;-52
2023/07/08 04:53:56;;;;;;;9.10;4.60;;;;;;;16.70;65.20;97357.28;5036629;28;20045;-48
2023/07/08 04:56:25;;;;;;;10.00;4.63;;;;;;;16.78;65.38;97361.31;5050407;28;20640;-49
2023/07/08 04:58:52;;;;;;;9.38;4.78;;;;;;;16.94;64.59;97359.19;5037158;28;20033;-49
2023/07/08 05:01:18;;;;;;;9.88;5.25;;;;;;;17.13;63.89;97358.41;5045416;28;20047;-47
2023/07/08 05:03:45;;;;;;;9.13;4.97;;;;;;;17.15;65.00;97356.19;5039800;28;20774;-50
2023/07/08 05:06:11;;;;;;;9.55;5.07;;;;;;;16.83;69.67;97363.16;5042237;28;20041;-58
2023/07/08 05:08:38;;;;;;;9.15;5.30;;;;;;;16.75;69.01;97359.16;5045290;28;20040;-58
2023/07/08 05:11:04;;;;;;;8.73;4.90;;;;;;;16.72;68.02;97376.13;5037220;28;20045;-59
2023/07/08 05:13:31;;;;;;;9.98;4.93;;;;;;;16.52;70.12;97387.00;5037892;28;20112;-57
2023/07/08 05:15:57;;;;;;;12.30;4.93;;;;;;;16.76;68.31;97366.25;5044118;28;20048;-58
2023/07/08 05:18:24;;;;;;;9.45;4.95;;;;;;;17.06;67.54;97366.97;5031559;28;20124;-55
2023/07/08 05:20:52;;;;;;;12.25;5.20;;;;;;;17.27;68.26;97362.03;5040045;28;20504;-58
2023/07/08 05:23:18;;;;;;;11.18;4.70;;;;;;;17.51;66.68;97366.59;5042749;28;20048;-58
2023/07/08 05:25:45;;;;;;;12.65;5.18;;;;;;;17.74;65.91;97371.44;5034600;28;20117;-58
2023/07/08 05:28:11;;;;;;;10.57;5.50;;;;;;;17.96;66.29;97367.25;5037587;28;20051;-56
2023/07/08 05:30:40;;;;;;;8.88;4.28;;;;;;;18.18;65.23;97364.69;5038480;28;20061;-58
2023/07/08 05:33:07;;;;;;;8.30;4.95;;;;;;;18.46;59.08;97374.84;5048739;28;20053;-56
2023/07/08 05:35:34;;;;;;;8.50;5.18;;;;;;;18.70;57.92;97368.38;5035735;28;20114;-59
2023/07/08 05:38:01;;;;;;;8.38;5.05;;;;;;;18.89;58.74;97376.47;5042643;28;20033;-58
2023/07/08 05:40:28;;;;;;;8.38;4.50;;;;;;;19.03;59.45;97378.38;5036461;28;20575;-57
2023/07/08 05:42:54;;;;;;;7.88;4.47;;;;;;;19.15;59.86;97370.47;5034457;28;20502;-58
2023/07/08 05:45:21;;;;;;;7.90;4.82;;;;;;;19.26;59.83;97372.97;5034831;28;20033;-56
2023/07/08 05:47:47;;;;;;;9.18;4.70;;;;;;;19.45;56.04;97375.56;5037361;28;20571;-58
2023/07/08 05:50:14;;;;;;;8.18;5.00;;;;;;;19.86;54.00;97379.25;5046154;28;20041;-58
2023/07/08 05:52:40;;;;;;;10.63;6.40;;;;;;;20.18;53.40;97384.81;5040327;28;20512;-57
2023/07/08 05:55:07;;;;;;;9.38;5.10;;;;;;;20.43;52.97;97390.75;5036534;28;20059;-58
2023/07/08 05:57:34;;;;;;;8.63;5.20;;;;;;;20.63;52.37;97392.13;5050397;28;20037;-59
2023/07/08 06:00:00;;;;;;;9.95;4.57;;;;;;;20.77;52.00;97400.28;5037855;28;20079;-58
2023/07/08 06:02:37;;;;;;;8.32;4.25;;;;;;;21.22;50.64;97399.28;5045319;28;20061;-58
2023/07/08 06:05:04;;;;;;;8.63;4.13;;;;;;;21.41;49.46;97396.22;5040731;28;20044;-59
2023/07/08 06:07:32;;;;;;;8.02;3.97;;;;;;;21.57;49.15;97395.75;5035795;28;20037;-57
2023/07/08 06:09:59;;;;;;;8.65;5.00;;;;;;;21.91;47.70;97396.88;5041259;28;20051;-58
2023/07/08 06:12:25;;;;;;;10.40;4.10;;;;;;;22.16;46.30;97394.41;5050316;28;20045;-58
2023/07/08 06:14:52;;;;;;;7.13;3.97;;;;;;;22.38;46.33;97398.06;5039437;28;20037;-57
2023/07/08 06:17:18;;;;;;;6.90;3.97;;;;;;;22.55;46.85;97399.97;5030715;28;20055;-58
2023/07/08 06:19:45;;;;;;;8.55;4.25;;;;;;;22.67;45.87;97395.72;5049492;28;20045;-58
2023/07/08 06:22:12;;;;;;;9.07;4.05;;;;;;;22.82;45.69;97386.84;5029323;28;20521;-58
2023/07/08 06:24:58;;;;;;;8.15;4.25;;;;;;;23.00;45.56;97395.06;5040471;28;20048;-58
2023/07/08 06:27:24;;;;;;;7.22;4.00;;;;;;;23.36;43.93;97398.41;5043323;28;20044;-59
2023/07/08 06:29:52;;;;;;;8.95;3.95;;;;;;;23.57;43.30;97403.13;5047487;28;20108;-57
2023/07/08 06:32:19;;;;;;;6.18;3.20;;;;;;;23.78;42.76;97414.19;5048018;28;20048;-58
2023/07/08 06:34:46;;;;;;;6.65;3.60;;;;;;;24.01;42.44;97424.88;5035610;28;20049;-57
2023/07/08 06:37:12;;;;;;;9.30;3.95;;;;;;;24.27;41.80;97424.66;5041209;28;20047;-58
2023/07/08 06:39:39;;;;;;;8.27;3.90;;;;;;;24.42;41.54;97431.50;5035304;28;20051;-58
2023/07/08 06:42:08;;;;;;;7.68;3.88;;;;;;;24.55;41.45;97432.31;5046133;28;20064;-59
2023/07/08 06:44:39;;;;;;;8.70;3.70;;;;;;;24.69;41.26;97431.16;5033485;28;20053;-59
2023/07/08 06:47:05;;;;;;;7.78;3.75;;;;;;;24.73;41.05;97436.84;5043105;28;20434;-59
2023/07/08 06:49:32;;;;;;;8.48;4.13;;;;;;;24.67;41.21;97437.06;5043802;28;20042;-57
2023/07/08 06:52:00;;;;;;;8.35;3.88;;;;;;;24.53;41.39;97442.94;5050865;28;20048;-59
2023/07/08 06:54:27;;;;;;;7.18;3.50;;;;;;;24.61;41.91;97441.19;5045971;28;20051;-58
2023/07/08 06:56:54;;;;;;;7.72;3.30;;;;;;;24.54;41.45;97435.41;5045606;28;20061;-58
2023/07/08 06:59:20;;;;;;;8.85;3.38;;;;;;;24.53;41.34;97437.41;5036983;28;20064;-59
2023/07/08 07:01:47;;;;;;;8.40;3.17;;;;;;;24.52;42.28;97441.31;5053578;28;20044;-59
2023/07/08 07:04:14;;;;;;;6.10;3.03;;;;;;;24.57;41.49;97445.81;5038371;28;20042;-57
2023/07/08 07:06:40;;;;;;;6.57;2.75;;;;;;;24.64;41.68;97439.72;5038275;28;20029;-58
2023/07/08 07:09:07;;;;;;;7.07;3.45;;;;;;;24.74;42.01;97446.75;5038083;28;20041;-59
2023/07/08 07:11:33;;;;;;;6.25;3.60;;;;;;;24.73;42.06;97443.16;5040328;28;20037;-59
2023/07/08 07:14:00;;;;;;;7.07;3.83;;;;;;;24.81;42.17;97458.09;5039574;28;20042;-58
2023/07/08 07:16:26;;;;;;;9.52;4.60;;;;;;;24.67;40.57;97448.16;5043773;28;20047;-58
2023/07/08 07:18:53;;;;;;;7.82;4.45;;;;;;;24.54;40.02;97463.09;5039082;28;20095;-57
2023/07/08 07:21:19;;;;;;;7.70;4.40;;;;;;;24.48;40.26;97461.72;5040971;28;20591;-58
2023/07/08 07:23:46;;;;;;;9.82;4.50;;;;;;;24.35;40.37;97452.56;5040084;28;20077;-56
2023/07/08 07:26:14;;;;;;;10.48;4.68;;;;;;;24.24;40.30;97458.53;5041277;28;20037;-58
2023/07/08 07:28:40;;;;;;;8.07;4.38;;;;;;;24.29;40.60;97458.31;5049216;28;20053;-59
2023/07/08 07:31:07;;;;;;;14.90;5.20;;;;;;;24.34;40.54;97460.06;5038012;28;20043;-58
2023/07/08 07:33:34;;;;;;;6.70;3.90;;;;;;;24.45;40.94;97463.19;5038735;28;20070;-57
2023/07/08 07:36:00;;;;;;;9.07;4.60;;;;;;;24.44;40.74;97466.31;5039948;28;20412;-58
2023/07/08 07:38:28;;;;;;;8.65;4.40;;;;;;;24.43;40.60;97468.25;5043327;28;20397;-58
2023/07/08 07:40:55;;;;;;;11.23;4.50;;;;;;;24.48;41.04;97468.06;5042840;28;20033;-59
2023/07/08 07:43:22;;;;;;;9.43;4.57;;;;;;;24.51;40.98;97450.75;5036519;28;20163;-59
2023/07/08 07:45:52;;;;;;;9.10;4.47;;;;;;;24.54;41.02;97455.59;5046901;28;20094;-58
2023/07/08 07:48:20;;;;;;;8.02;4.35;;;;;;;24.60;41.04;97463.69;5039487;28;20467;-59
2023/07/08 07:50:47;;;;;;;9.60;4.80;;;;;;;24.64;41.05;97465.44;5048982;28;20044;-59
2023/07/08 07:53:14;;;;;;;10.27;4.65;;;;;;;24.70;40.59;97463.25;5037049;28;20051;-59
2023/07/08 07:55:41;;;;;;;9.10;4.32;;;;;;;24.81;42.19;97471.94;5039480;28;20048;-57
2023/07/08 07:58:07;;;;;;;10.45;4.82;;;;;;;24.79;40.90;97463.13;5044588;28;20047;-59
2023/07/08 08:00:34;;;;;;;9.00;4.75;;;;;;;24.87;40.74;97472.53;5043174;28;20128;-59
2023/07/08 08:03:01;;;;;;;8.13;4.57;;;;;;;24.97;40.93;97462.94;5046217;28;20055;-59
2023/07/08 08:05:27;;;;;;;8.60;4.50;;;;;;;25.00;40.98;97470.56;5044031;28;20041;-57
2023/07/08 08:07:54;;;;;;;7.72;4.70;;;;;;;25.04;40.53;97468.72;5038549;28;20045;-57
2023/07/08 08:10:20;;;;;;;6.90;3.85;;;;;;;25.09;41.29;97462.94;5032592;28;20098;-58
2023/07/08 08:12:50;;;;;;;8.00;4.70;;;;;;;25.19;41.16;97461.69;5047797;28;20045;-58
2023/07/08 08:15:21;;;;;;;7.07;4.07;;;;;;;25.19;40.72;97470.00;5045176;28;20053;-58
2023/07/08 08:17:49;;;;;;;9.10;3.88;;;;;;;25.29;40.56;97455.69;5037438;28;20048;-57
2023/07/08 08:20:16;;;;;;;6.15;3.55;;;;;;;25.40;40.25;97463.53;5048759;28;20047;-58
2023/07/08 08:22:43;;;;;;;6.90;3.80;;;;;;;25.48;40.09;97465.34;5036569;28;20053;-56
2023/07/08 08:25:10;;;;;;;7.15;3.63;;;;;;;25.51;40.00;97456.34;5054105;28;20090;-59
2023/07/08 08:27:37;;;;;;;5.30;3.05;;;;;;;25.65;39.89;97463.50;5040977;28;20151;-58
2023/07/08 08:30:05;;;;;;;9.45;4.00;;;;;;;25.67;39.81;97456.47;5046674;28;20563;-59
2023/07/08 08:32:32;;;;;;;7.68;3.10;;;;;;;25.76;40.34;97447.19;5036822;28;20566;-59
2023/07/08 08:34:58;;;;;;;11.85;3.63;;;;;;;25.79;39.26;97452.84;5050944;28;20594;-58
2023/07/08 08:37:28;;;;;;;6.38;3.38;;;;;;;25.75;39.88;97448.34;5040298;28;20052;-57
2023/07/08 08:39:55;;;;;;;5.78;2.60;;;;;;;25.81;39.46;97456.06;5036716;28;20408;-59
2023/07/08 08:42:22;;;;;;;5.93;2.17;;;;;;;25.93;39.32;97454.41;5041174;28;20046;-55
2023/07/08 08:44:48;;;;;;;6.85;2.35;;;;;;;26.11;38.75;97454.91;5052123;28;20056;-55
2023/07/08 08:47:40;;;;;;;5.18;1.60;;;;;;;26.30;38.17;97459.81;5049972;28;20055;-58
2023/07/08 08:50:18;;;;;;;5.43;1.80;;;;;;;26.41;37.34;97456.53;5053104;28;20052;-58
2023/07/08 08:52:45;;;;;;;3.13;1.20;;;;;;;26.64;36.68;97459.50;5052406;28;20079;-58
2023/07/08 08:55:14;;;;;;;4.07;1.58;;;;;;;26.76;34.98;97453.09;5046188;28;20548;-57
2023/07/08 08:58:06;;;;;;;3.92;1.67;;;;;;;26.80;35.08;97456.75;5051811;28;20055;-57
2023/07/08 09:00:55;;;;;;;2.97;1.40;;;;;;;26.99;34.56;97458.84;5034306;28;20584;-58
2023/07/08 09:03:37;;;;;;;5.15;1.73;;;;;;;27.10;34.99;97461.88;5042424;28;20069;-57
2023/07/08 09:06:19;;;;;;;4.80;1.77;;;;;;;27.23;33.85;97459.78;5050364;28;20490;-59
2023/07/08 09:08:46;;;;;;;3.85;1.80;;;;;;;27.21;34.21;97461.31;5042710;28;20120;-59
2023/07/08 09:11:19;;;;;;;4.72;2.05;;;;;;;27.36;33.36;97459.69;5044672;28;20036;-57
2023/07/08 09:13:47;;;;;;;3.65;1.50;;;;;;;27.37;32.53;97472.41;5042858;28;20052;-59
2023/07/08 09:16:25;;;;;;;4.82;1.40;;;;;;;27.54;32.31;97462.88;5042070;28;20111;-57
2023/07/08 09:19:00;;;;;;;3.50;1.15;;;;;;;27.62;32.75;97459.13;5039584;28;20044;-58
2023/07/08 09:21:33;;;;;;;4.35;1.50;;;;;;;27.92;32.77;97457.75;5049846;28;20047;-59
2023/07/08 09:24:08;;;;;;;4.60;1.55;;;;;;;28.01;31.66;97463.88;5044150;28;20044;-59
2023/07/08 09:26:51;;;;;;;4.22;1.35;;;;;;;27.98;31.62;97459.06;5093756;27;20737;-57
2023/07/08 09:29:18;;;;;;;3.08;1.17;;;;;;;28.00;31.97;97450.34;5081156;28;20052;-59
2023/07/08 09:31:44;;;;;;;3.30;1.33;;;;;;;28.04;31.67;97456.78;5082755;28;20123;-58
2023/07/08 09:34:14;;;;;;;3.30;1.40;;;;;;;28.08;32.04;97452.09;5078586;28;20518;-57
2023/07/08 09:36:43;;;;;;;5.60;1.83;;;;;;;28.14;32.46;97456.19;5085819;28;20051;-59
2023/07/08 09:39:12;;;;;;;2.90;1.30;;;;;;;28.29;31.86;97460.09;5088270;28;20050;-59
2023/07/08 09:41:40;;;;;;;4.70;1.20;;;;;;;28.15;31.13;97449.44;5085485;28;20260;-57
2023/07/08 09:44:28;;;;;;;3.90;1.10;;;;;;;28.05;32.18;97456.41;5080625;28;20048;-59
2023/07/08 09:46:57;;;;;;;4.03;1.40;;;;;;;28.08;32.03;97456.88;5077854;28;20036;-58
2023/07/08 09:49:31;;;;;;;3.78;1.40;;;;;;;28.21;31.41;97454.72;5086199;28;20436;-59
2023/07/08 09:51:57;;;;;;;3.70;1.45;;;;;;;28.17;31.29;97449.91;5090953;28;20048;-57
2023/07/08 09:54:25;;;;;;;4.32;1.40;;;;;;;28.30;31.69;97445.00;5074618;28;20658;-58
2023/07/08 09:56:54;;;;;;;4.53;1.38;;;;;;;28.49;32.27;97437.78;5083845;28;20055;-55
2023/07/08 09:59:27;;;;;;;4.90;1.52;;;;;;;28.57;31.66;97449.84;5083288;28;20052;-57
2023/07/08 10:01:54;;;;;;;7.45;2.70;;;;;;;28.59;33.10;97436.34;5083302;28;20039;-58
2023/07/08 10:04:21;;;;;;;8.68;3.20;;;;;;;28.67;34.44;97443.66;5080304;28;20051;-58
2023/07/08 10:06:49;;;;;;;5.97;2.55;;;;;;;28.67;33.80;97437.31;5085091;28;20164;-59
2023/07/08 10:09:20;;;;;;;8.85;3.28;;;;;;;28.74;33.96;97437.41;5078453;28;20119;-59
2023/07/08 10:11:53;;;;;;;5.40;2.50;;;;;;;28.72;32.61;97439.78;5079889;28;20044;-59
2023/07/08 10:14:27;;;;;;;7.53;3.83;;;;;;;28.68;33.19;97439.69;5077564;28;20123;-59
2023/07/08 10:16:54;;;;;;;6.05;3.65;;;;;;;28.53;33.75;97437.84;5084808;28;20437;-59
2023/07/08 10:19:21;;;;;;;9.20;3.47;;;;;;;28.61;33.50;97439.59;5079989;28;20051;-59
2023/07/08 10:22:01;;;;;;;6.50;3.60;;;;;;;28.47;33.23;97445.69;5082143;28;20047;-59
2023/07/08 10:24:46;;;;;;;8.90;3.63;;;;;;;28.37;33.71;97444.31;5080086;28;20044;-58
2023/07/08 10:27:31;;;;;;;7.03;3.08;;;;;;;28.49;34.10;97451.69;5091231;28;20032;-58
2023/07/08 10:30:17;;;;;;;8.25;2.90;;;;;;;28.62;33.17;97449.53;5088603;28;20648;-58
2023/07/08 10:33:14;;;;;;;7.07;3.35;;;;;;;28.74;33.04;97444.97;5076680;28;20128;-59
2023/07/08 10:35:57;;;;;;;6.97;3.00;;;;;;;28.80;32.85;97443.47;5075790;28;20032;-58
2023/07/08 10:38:46;;;;;;;8.82;3.47;;;;;;;28.65;32.90;97432.09;5063855;28;20044;-58
2023/07/08 10:41:26;;;;;;;6.93;2.80;;;;;;;28.78;32.59;97446.63;5074906;28;20044;-58
2023/07/08 10:44:05;;;;;;;8.63;2.95;;;;;;;29.03;32.80;97446.28;5064434;28;20070;-57
2023/07/08 10:47:06;;;;;;;6.20;2.90;;;;;;;29.02;32.54;97439.09;5067878;28;20052;-58
2023/07/08 10:49:48;;;;;;;6.35;3.00;;;;;;;29.11;32.46;97438.81;5067512;28;20089;-57
2023/07/08 10:52:39;;;;;;;6.72;3.50;;;;;;;29.25;32.46;97435.44;5066605;28;20778;-57
2023/07/08 10:55:09;;;;;;;;;;;;;;;29.37;32.09;97442.78;5072007;28;20032;-55
2023/07/08 10:58:13;;;;;;;6.72;3.28;;;;;;;29.54;31.92;97447.06;5072243;28;19994;-54
2023/07/08 11:00:48;;;;;;;5.82;2.63;;;;;;;29.55;31.68;97442.28;5065727;28;20045;-58
2023/07/08 11:03:39;;;;;;;7.13;2.83;;;;;;;29.56;31.82;97432.72;5068205;28;20045;-57
2023/07/08 11:06:14;;;;;;;8.30;3.10;;;;;;;29.79;31.33;97437.41;5067119;28;20040;-56
2023/07/08 11:08:49;;;;;;;5.82;2.70;;;;;;;29.89;31.02;97431.16;5072551;28;20044;-58
2023/07/08 11:11:27;;;;;;;5.38;2.65;;;;;;;30.02;31.00;97431.69;5065621;28;20048;-58
2023/07/08 11:14:13;;;;;;;6.00;2.80;;;;;;;30.01;30.94;97432.06;5069528;28;20050;-58
2023/07/08 11:16:51;;;;;;;6.57;3.17;;;;;;;30.18;30.46;97439.88;5066977;28;20046;-59
2023/07/08 11:19:37;;;;;;;5.07;3.10;;;;;;;30.08;30.49;97427.41;5068573;28;20048;-56
2023/07/08 11:22:10;;;;;;;7.80;2.42;;;;;;;30.36;30.16;97434.50;5064509;28;20673;-58
2023/07/08 11:24:45;;;;;;;5.15;2.63;;;;;;;30.34;29.66;97436.06;5068344;28;20054;-58
2023/07/08 11:27:24;;;;;;;5.53;2.75;;;;;;;30.07;30.01;97430.56;5065962;28;20048;-58
2023/07/08 11:30:10;;;;;;;4.68;2.63;;;;;;;30.23;30.14;97433.97;5072524;28;20133;-57
2023/07/08 11:32:38;;;;;;;8.35;2.85;;;;;;;30.22;29.58;97437.16;5060405;28;20049;-56
2023/07/08 11:35:13;;;;;;;4.88;2.58;;;;;;;30.08;29.54;97423.78;5070132;28;20040;-61
2023/07/08 11:37:40;;;;;;;5.18;2.25;;;;;;;30.29;30.10;97430.84;5073401;28;20052;-60
2023/07/08 11:40:22;;;;;;;5.25;2.40;;;;;;;30.22;29.63;97426.75;5067911;28;20055;-58
2023/07/08 11:42:51;;;;;;;5.63;2.80;;;;;;;30.23;30.84;97435.94;5070296;28;20044;-59
2023/07/08 11:45:31;;;;;;;5.10;2.42;;;;;;;30.18;31.45;97431.50;5069438;28;20042;-55